sensor_id;sensor_type;location;lat;lon;timestamp;P1;durP1;ratioP1;P2;durP2;ratioP2
9821;SDS011;4950;46.042;14.472;2023-01-19T00:01:40;37.75;;;21.00;;
9821;SDS011;4950;46.042;14.472;2023-01-19T00:04:07;34.25;;;18.88;;
9821;SDS011;4950;46.042;14.472;2023-01-19T00:06:34;31.48;;;18.10;;
9821;SDS011;4950;46.042;14.472;2023-01-19T00:09:02;32.40;;;18.42;;
9821;SDS011;4950;46.042;14.472;2023-01-19T00:11:28;33.30;;;20.33;;
9821;SDS011;4950;46.042;14.472;2023-01-19T00:13:55;33.53;;;19.15;;
9821;SDS011;4950;46.042;14.472;2023-01-19T00:16:22;32.90;;;17.98;;
9821;SDS011;4950;46.042;14.472;2023-01-19T00:18:49;31.38;;;18.92;;
9821;SDS011;4950;46.042;14.472;2023-01-19T00:21:17;35.40;;;19.60;;
9821;SDS011;4950;46.042;14.472;2023-01-19T00:23:45;33.05;;;19.13;;
9821;SDS011;4950;46.042;14.472;2023-01-19T00:26:14;33.85;;;19.25;;
9821;SDS011;4950;46.042;14.472;2023-01-19T00:28:41;33.28;;;18.35;;
9821;SDS011;4950;46.042;14.472;2023-01-19T00:31:08;30.85;;;18.60;;
9821;SDS011;4950;46.042;14.472;2023-01-19T00:33:35;30.73;;;18.77;;
9821;SDS011;4950;46.042;14.472;2023-01-19T00:36:02;34.17;;;18.80;;
9821;SDS011;4950;46.042;14.472;2023-01-19T00:38:29;37.00;;;19.65;;
9821;SDS011;4950;46.042;14.472;2023-01-19T00:40:59;32.78;;;19.83;;
9821;SDS011;4950;46.042;14.472;2023-01-19T00:43:27;37.72;;;22.15;;
9821;SDS011;4950;46.042;14.472;2023-01-19T00:45:53;30.75;;;18.70;;
9821;SDS011;4950;46.042;14.472;2023-01-19T00:48:20;29.17;;;17.23;;
9821;SDS011;4950;46.042;14.472;2023-01-19T00:50:46;31.88;;;19.00;;
9821;SDS011;4950;46.042;14.472;2023-01-19T00:53:13;29.55;;;17.63;;
9821;SDS011;4950;46.042;14.472;2023-01-19T00:55:40;36.20;;;20.20;;
9821;SDS011;4950;46.042;14.472;2023-01-19T00:58:07;35.15;;;20.20;;
9821;SDS011;4950;46.042;14.472;2023-01-19T01:00:35;34.47;;;20.55;;
9821;SDS011;4950;46.042;14.472;2023-01-19T01:03:01;39.72;;;22.25;;
9821;SDS011;4950;46.042;14.472;2023-01-19T01:05:28;39.85;;;21.85;;
9821;SDS011;4950;46.042;14.472;2023-01-19T01:07:54;35.58;;;20.63;;
9821;SDS011;4950;46.042;14.472;2023-01-19T01:10:21;36.92;;;21.17;;
9821;SDS011;4950;46.042;14.472;2023-01-19T01:12:50;36.75;;;22.70;;
9821;SDS011;4950;46.042;14.472;2023-01-19T01:15:17;40.72;;;22.85;;
9821;SDS011;4950;46.042;14.472;2023-01-19T01:17:45;39.17;;;22.38;;
9821;SDS011;4950;46.042;14.472;2023-01-19T01:20:13;42.05;;;22.75;;
9821;SDS011;4950;46.042;14.472;2023-01-19T01:22:42;40.58;;;22.85;;
9821;SDS011;4950;46.042;14.472;2023-01-19T01:25:10;40.53;;;22.95;;
9821;SDS011;4950;46.042;14.472;2023-01-19T01:27:37;39.38;;;22.60;;
9821;SDS011;4950;46.042;14.472;2023-01-19T01:30:04;37.42;;;21.98;;
9821;SDS011;4950;46.042;14.472;2023-01-19T01:32:32;39.08;;;22.80;;
9821;SDS011;4950;46.042;14.472;2023-01-19T01:35:00;36.67;;;22.38;;
9821;SDS011;4950;46.042;14.472;2023-01-19T01:37:27;38.90;;;22.10;;
9821;SDS011;4950;46.042;14.472;2023-01-19T01:39:53;39.53;;;21.92;;
9821;SDS011;4950;46.042;14.472;2023-01-19T01:42:23;36.15;;;21.02;;
9821;SDS011;4950;46.042;14.472;2023-01-19T01:44:52;39.45;;;20.92;;
9821;SDS011;4950;46.042;14.472;2023-01-19T01:47:23;36.05;;;20.17;;
9821;SDS011;4950;46.042;14.472;2023-01-19T01:49:55;37.05;;;21.10;;
9821;SDS011;4950;46.042;14.472;2023-01-19T01:52:32;36.45;;;20.23;;
9821;SDS011;4950;46.042;14.472;2023-01-19T01:55:02;36.70;;;21.38;;
9821;SDS011;4950;46.042;14.472;2023-01-19T01:57:32;33.00;;;19.88;;
9821;SDS011;4950;46.042;14.472;2023-01-19T02:00:02;32.50;;;19.75;;
9821;SDS011;4950;46.042;14.472;2023-01-19T02:02:31;31.67;;;19.25;;
9821;SDS011;4950;46.042;14.472;2023-01-19T02:05:20;37.15;;;21.10;;
9821;SDS011;4950;46.042;14.472;2023-01-19T02:07:52;32.60;;;19.42;;
9821;SDS011;4950;46.042;14.472;2023-01-19T02:10:41;32.00;;;20.35;;
9821;SDS011;4950;46.042;14.472;2023-01-19T02:13:27;29.42;;;18.45;;
9821;SDS011;4950;46.042;14.472;2023-01-19T02:15:56;31.35;;;18.50;;
9821;SDS011;4950;46.042;14.472;2023-01-19T02:18:26;32.70;;;20.05;;
9821;SDS011;4950;46.042;14.472;2023-01-19T02:20:56;31.35;;;18.85;;
9821;SDS011;4950;46.042;14.472;2023-01-19T02:23:33;33.92;;;21.42;;
9821;SDS011;4950;46.042;14.472;2023-01-19T02:26:04;33.03;;;19.02;;
9821;SDS011;4950;46.042;14.472;2023-01-19T02:28:33;35.45;;;20.35;;
9821;SDS011;4950;46.042;14.472;2023-01-19T02:31:02;37.50;;;21.60;;
9821;SDS011;4950;46.042;14.472;2023-01-19T02:33:29;45.42;;;25.67;;
9821;SDS011;4950;46.042;14.472;2023-01-19T02:35:55;33.63;;;20.20;;
9821;SDS011;4950;46.042;14.472;2023-01-19T02:38:23;32.30;;;19.80;;
9821;SDS011;4950;46.042;14.472;2023-01-19T02:40:53;37.90;;;21.90;;
9821;SDS011;4950;46.042;14.472;2023-01-19T02:43:22;33.67;;;20.75;;
9821;SDS011;4950;46.042;14.472;2023-01-19T02:45:50;36.45;;;21.42;;
9821;SDS011;4950;46.042;14.472;2023-01-19T02:48:16;33.90;;;20.42;;
9821;SDS011;4950;46.042;14.472;2023-01-19T02:50:46;31.42;;;19.88;;
9821;SDS011;4950;46.042;14.472;2023-01-19T02:53:18;34.85;;;20.27;;
9821;SDS011;4950;46.042;14.472;2023-01-19T02:55:55;31.38;;;19.52;;
9821;SDS011;4950;46.042;14.472;2023-01-19T02:58:29;31.35;;;19.95;;
9821;SDS011;4950;46.042;14.472;2023-01-19T03:01:05;33.72;;;21.02;;
9821;SDS011;4950;46.042;14.472;2023-01-19T03:03:43;34.90;;;20.83;;
9821;SDS011;4950;46.042;14.472;2023-01-19T03:06:22;33.63;;;19.88;;
9821;SDS011;4950;46.042;14.472;2023-01-19T03:08:58;33.42;;;20.52;;
9821;SDS011;4950;46.042;14.472;2023-01-19T03:11:32;33.50;;;19.55;;
9821;SDS011;4950;46.042;14.472;2023-01-19T03:14:05;35.72;;;21.17;;
9821;SDS011;4950;46.042;14.472;2023-01-19T03:16:38;36.65;;;21.25;;
9821;SDS011;4950;46.042;14.472;2023-01-19T03:19:08;34.17;;;19.73;;
9821;SDS011;4950;46.042;14.472;2023-01-19T03:21:38;33.83;;;20.65;;
9821;SDS011;4950;46.042;14.472;2023-01-19T03:24:08;35.15;;;21.88;;
9821;SDS011;4950;46.042;14.472;2023-01-19T03:26:40;35.88;;;21.88;;
9821;SDS011;4950;46.042;14.472;2023-01-19T03:29:11;34.33;;;21.67;;
9821;SDS011;4950;46.042;14.472;2023-01-19T03:31:40;35.83;;;21.77;;
9821;SDS011;4950;46.042;14.472;2023-01-19T03:34:10;36.40;;;22.65;;
9821;SDS011;4950;46.042;14.472;2023-01-19T03:36:41;34.55;;;21.20;;
9821;SDS011;4950;46.042;14.472;2023-01-19T03:39:10;30.42;;;19.77;;
9821;SDS011;4950;46.042;14.472;2023-01-19T03:41:41;36.85;;;20.83;;
9821;SDS011;4950;46.042;14.472;2023-01-19T03:44:09;40.03;;;23.20;;
9821;SDS011;4950;46.042;14.472;2023-01-19T03:46:36;39.95;;;22.85;;
9821;SDS011;4950;46.042;14.472;2023-01-19T03:49:04;43.55;;;24.17;;
9821;SDS011;4950;46.042;14.472;2023-01-19T03:51:33;42.50;;;22.83;;
9821;SDS011;4950;46.042;14.472;2023-01-19T03:56:28;38.75;;;21.85;;
9821;SDS011;4950;46.042;14.472;2023-01-19T03:58:56;38.50;;;20.77;;
9821;SDS011;4950;46.042;14.472;2023-01-19T04:01:23;33.42;;;20.42;;
9821;SDS011;4950;46.042;14.472;2023-01-19T04:03:50;36.40;;;21.95;;
9821;SDS011;4950;46.042;14.472;2023-01-19T04:06:17;34.17;;;20.58;;
9821;SDS011;4950;46.042;14.472;2023-01-19T04:08:46;34.75;;;21.05;;
9821;SDS011;4950;46.042;14.472;2023-01-19T04:11:13;33.47;;;19.83;;
9821;SDS011;4950;46.042;14.472;2023-01-19T04:13:40;35.85;;;21.00;;
9821;SDS011;4950;46.042;14.472;2023-01-19T04:16:09;27.45;;;17.40;;
9821;SDS011;4950;46.042;14.472;2023-01-19T04:18:36;32.28;;;19.85;;
9821;SDS011;4950;46.042;14.472;2023-01-19T04:21:03;28.10;;;17.08;;
9821;SDS011;4950;46.042;14.472;2023-01-19T04:23:31;27.52;;;16.92;;
9821;SDS011;4950;46.042;14.472;2023-01-19T04:25:59;24.92;;;15.27;;
9821;SDS011;4950;46.042;14.472;2023-01-19T04:28:26;26.45;;;15.73;;
9821;SDS011;4950;46.042;14.472;2023-01-19T04:30:53;28.92;;;17.17;;
9821;SDS011;4950;46.042;14.472;2023-01-19T04:33:21;31.17;;;18.27;;
9821;SDS011;4950;46.042;14.472;2023-01-19T04:35:49;27.80;;;17.60;;
9821;SDS011;4950;46.042;14.472;2023-01-19T04:38:17;27.00;;;16.88;;
9821;SDS011;4950;46.042;14.472;2023-01-19T04:40:43;26.60;;;16.45;;
9821;SDS011;4950;46.042;14.472;2023-01-19T04:43:10;26.10;;;16.35;;
9821;SDS011;4950;46.042;14.472;2023-01-19T04:45:38;29.73;;;19.13;;
9821;SDS011;4950;46.042;14.472;2023-01-19T04:48:05;33.67;;;20.67;;
9821;SDS011;4950;46.042;14.472;2023-01-19T04:50:33;32.30;;;19.08;;
9821;SDS011;4950;46.042;14.472;2023-01-19T04:52:59;30.48;;;19.27;;
9821;SDS011;4950;46.042;14.472;2023-01-19T04:55:26;28.38;;;17.33;;
9821;SDS011;4950;46.042;14.472;2023-01-19T04:57:53;29.23;;;17.17;;
9821;SDS011;4950;46.042;14.472;2023-01-19T05:00:20;27.45;;;15.48;;
9821;SDS011;4950;46.042;14.472;2023-01-19T05:02:47;24.58;;;15.75;;
9821;SDS011;4950;46.042;14.472;2023-01-19T05:05:14;25.15;;;15.65;;
9821;SDS011;4950;46.042;14.472;2023-01-19T05:07:43;24.98;;;16.63;;
9821;SDS011;4950;46.042;14.472;2023-01-19T05:10:10;21.63;;;14.23;;
9821;SDS011;4950;46.042;14.472;2023-01-19T05:12:37;21.05;;;13.80;;
9821;SDS011;4950;46.042;14.472;2023-01-19T05:15:04;21.58;;;13.65;;
9821;SDS011;4950;46.042;14.472;2023-01-19T05:17:31;22.98;;;14.73;;
9821;SDS011;4950;46.042;14.472;2023-01-19T05:19:58;26.80;;;16.35;;
9821;SDS011;4950;46.042;14.472;2023-01-19T05:22:25;24.90;;;16.13;;
9821;SDS011;4950;46.042;14.472;2023-01-19T05:24:53;26.90;;;17.38;;
9821;SDS011;4950;46.042;14.472;2023-01-19T05:27:19;24.15;;;15.32;;
9821;SDS011;4950;46.042;14.472;2023-01-19T05:29:46;23.75;;;15.55;;
9821;SDS011;4950;46.042;14.472;2023-01-19T05:32:12;22.60;;;13.70;;
9821;SDS011;4950;46.042;14.472;2023-01-19T05:34:39;27.98;;;15.43;;
9821;SDS011;4950;46.042;14.472;2023-01-19T05:37:05;22.90;;;14.98;;
9821;SDS011;4950;46.042;14.472;2023-01-19T05:39:32;24.02;;;14.70;;
9821;SDS011;4950;46.042;14.472;2023-01-19T05:42:00;27.00;;;15.98;;
9821;SDS011;4950;46.042;14.472;2023-01-19T05:44:27;25.53;;;14.83;;
9821;SDS011;4950;46.042;14.472;2023-01-19T05:46:53;23.77;;;14.88;;
9821;SDS011;4950;46.042;14.472;2023-01-19T05:49:20;22.40;;;13.88;;
9821;SDS011;4950;46.042;14.472;2023-01-19T05:51:46;23.10;;;13.60;;
9821;SDS011;4950;46.042;14.472;2023-01-19T05:54:13;19.65;;;12.73;;
9821;SDS011;4950;46.042;14.472;2023-01-19T05:56:40;22.00;;;13.65;;
9821;SDS011;4950;46.042;14.472;2023-01-19T05:59:08;21.52;;;12.65;;
9821;SDS011;4950;46.042;14.472;2023-01-19T06:01:35;21.75;;;13.75;;
9821;SDS011;4950;46.042;14.472;2023-01-19T06:04:02;22.30;;;13.50;;
9821;SDS011;4950;46.042;14.472;2023-01-19T06:06:29;21.98;;;11.80;;
9821;SDS011;4950;46.042;14.472;2023-01-19T06:08:56;19.30;;;11.52;;
9821;SDS011;4950;46.042;14.472;2023-01-19T06:11:22;21.90;;;11.95;;
9821;SDS011;4950;46.042;14.472;2023-01-19T06:13:50;18.45;;;11.27;;
9821;SDS011;4950;46.042;14.472;2023-01-19T06:16:18;21.37;;;13.27;;
9821;SDS011;4950;46.042;14.472;2023-01-19T06:18:44;19.65;;;11.43;;
9821;SDS011;4950;46.042;14.472;2023-01-19T06:21:11;16.13;;;10.70;;
9821;SDS011;4950;46.042;14.472;2023-01-19T06:23:38;28.52;;;17.70;;
9821;SDS011;4950;46.042;14.472;2023-01-19T06:26:04;25.13;;;15.85;;
9821;SDS011;4950;46.042;14.472;2023-01-19T06:28:31;27.02;;;15.88;;
9821;SDS011;4950;46.042;14.472;2023-01-19T06:30:58;26.57;;;15.57;;
9821;SDS011;4950;46.042;14.472;2023-01-19T06:33:26;22.17;;;12.63;;
9821;SDS011;4950;46.042;14.472;2023-01-19T06:35:53;22.40;;;13.07;;
9821;SDS011;4950;46.042;14.472;2023-01-19T06:38:20;22.15;;;12.15;;
9821;SDS011;4950;46.042;14.472;2023-01-19T06:40:50;16.92;;;10.63;;
9821;SDS011;4950;46.042;14.472;2023-01-19T06:43:18;20.23;;;11.00;;
9821;SDS011;4950;46.042;14.472;2023-01-19T06:45:45;14.20;;;8.85;;
9821;SDS011;4950;46.042;14.472;2023-01-19T06:48:12;16.37;;;8.87;;
9821;SDS011;4950;46.042;14.472;2023-01-19T06:50:40;16.73;;;9.60;;
9821;SDS011;4950;46.042;14.472;2023-01-19T06:53:07;17.60;;;10.52;;
9821;SDS011;4950;46.042;14.472;2023-01-19T06:55:33;15.65;;;9.75;;
9821;SDS011;4950;46.042;14.472;2023-01-19T06:58:01;13.73;;;8.27;;
9821;SDS011;4950;46.042;14.472;2023-01-19T07:00:27;13.97;;;7.07;;
9821;SDS011;4950;46.042;14.472;2023-01-19T07:02:54;13.10;;;7.27;;
9821;SDS011;4950;46.042;14.472;2023-01-19T07:05:21;14.40;;;7.27;;
9821;SDS011;4950;46.042;14.472;2023-01-19T07:07:52;16.05;;;8.38;;
9821;SDS011;4950;46.042;14.472;2023-01-19T07:10:20;15.70;;;8.23;;
9821;SDS011;4950;46.042;14.472;2023-01-19T07:12:47;15.73;;;8.53;;
9821;SDS011;4950;46.042;14.472;2023-01-19T07:15:14;17.10;;;8.50;;
9821;SDS011;4950;46.042;14.472;2023-01-19T07:17:43;16.60;;;9.38;;
9821;SDS011;4950;46.042;14.472;2023-01-19T07:20:11;21.87;;;10.00;;
9821;SDS011;4950;46.042;14.472;2023-01-19T07:22:39;15.13;;;8.27;;
9821;SDS011;4950;46.042;14.472;2023-01-19T07:25:09;13.75;;;7.32;;
9821;SDS011;4950;46.042;14.472;2023-01-19T07:27:35;10.83;;;6.37;;
9821;SDS011;4950;46.042;14.472;2023-01-19T07:30:02;11.60;;;6.60;;
9821;SDS011;4950;46.042;14.472;2023-01-19T07:32:29;10.30;;;5.70;;
9821;SDS011;4950;46.042;14.472;2023-01-19T07:34:56;10.75;;;5.43;;
9821;SDS011;4950;46.042;14.472;2023-01-19T07:37:23;9.67;;;4.90;;
9821;SDS011;4950;46.042;14.472;2023-01-19T07:39:49;10.00;;;5.00;;
9821;SDS011;4950;46.042;14.472;2023-01-19T07:42:17;9.97;;;5.40;;
9821;SDS011;4950;46.042;14.472;2023-01-19T07:44:44;19.47;;;9.73;;
9821;SDS011;4950;46.042;14.472;2023-01-19T07:47:10;18.47;;;9.53;;
9821;SDS011;4950;46.042;14.472;2023-01-19T07:49:37;18.92;;;9.93;;
9821;SDS011;4950;46.042;14.472;2023-01-19T07:52:04;18.25;;;9.68;;
9821;SDS011;4950;46.042;14.472;2023-01-19T07:54:31;12.20;;;6.88;;
9821;SDS011;4950;46.042;14.472;2023-01-19T07:56:58;21.47;;;12.90;;
9821;SDS011;4950;46.042;14.472;2023-01-19T07:59:27;23.47;;;13.30;;
9821;SDS011;4950;46.042;14.472;2023-01-19T08:01:55;24.33;;;11.27;;
9821;SDS011;4950;46.042;14.472;2023-01-19T08:04:23;21.53;;;10.57;;
9821;SDS011;4950;46.042;14.472;2023-01-19T08:06:50;20.27;;;9.20;;
9821;SDS011;4950;46.042;14.472;2023-01-19T08:09:16;16.67;;;8.10;;
9821;SDS011;4950;46.042;14.472;2023-01-19T08:11:43;16.27;;;7.20;;
9821;SDS011;4950;46.042;14.472;2023-01-19T08:14:09;10.90;;;6.60;;
9821;SDS011;4950;46.042;14.472;2023-01-19T08:16:37;13.00;;;7.77;;
9821;SDS011;4950;46.042;14.472;2023-01-19T08:19:04;12.33;;;7.87;;
9821;SDS011;4950;46.042;14.472;2023-01-19T08:21:31;12.53;;;8.07;;
9821;SDS011;4950;46.042;14.472;2023-01-19T08:23:59;15.10;;;8.47;;
9821;SDS011;4950;46.042;14.472;2023-01-19T08:26:26;14.57;;;8.87;;
9821;SDS011;4950;46.042;14.472;2023-01-19T08:28:55;12.85;;;8.77;;
9821;SDS011;4950;46.042;14.472;2023-01-19T08:31:23;13.82;;;8.55;;
9821;SDS011;4950;46.042;14.472;2023-01-19T08:33:53;22.23;;;13.67;;
9821;SDS011;4950;46.042;14.472;2023-01-19T08:36:20;16.63;;;10.83;;
9821;SDS011;4950;46.042;14.472;2023-01-19T08:38:49;18.75;;;12.20;;
9821;SDS011;4950;46.042;14.472;2023-01-19T08:41:15;20.00;;;11.90;;
9821;SDS011;4950;46.042;14.472;2023-01-19T08:43:42;38.55;;;23.08;;
9821;SDS011;4950;46.042;14.472;2023-01-19T08:46:09;50.45;;;27.95;;
9821;SDS011;4950;46.042;14.472;2023-01-19T08:48:36;40.53;;;23.57;;
9821;SDS011;4950;46.042;14.472;2023-01-19T08:51:04;27.52;;;16.83;;
9821;SDS011;4950;46.042;14.472;2023-01-19T08:53:31;17.63;;;11.52;;
9821;SDS011;4950;46.042;14.472;2023-01-19T08:55:58;14.73;;;9.73;;
9821;SDS011;4950;46.042;14.472;2023-01-19T08:58:26;15.93;;;8.80;;
9821;SDS011;4950;46.042;14.472;2023-01-19T09:00:53;13.00;;;8.67;;
9821;SDS011;4950;46.042;14.472;2023-01-19T09:03:20;12.37;;;8.13;;
9821;SDS011;4950;46.042;14.472;2023-01-19T09:05:47;14.70;;;8.82;;
9821;SDS011;4950;46.042;14.472;2023-01-19T09:08:15;14.90;;;8.83;;
9821;SDS011;4950;46.042;14.472;2023-01-19T09:10:44;12.13;;;7.50;;
9821;SDS011;4950;46.042;14.472;2023-01-19T09:13:12;11.10;;;7.60;;
9821;SDS011;4950;46.042;14.472;2023-01-19T09:15:40;10.63;;;6.60;;
9821;SDS011;4950;46.042;14.472;2023-01-19T09:18:08;10.10;;;5.85;;
9821;SDS011;4950;46.042;14.472;2023-01-19T09:23:06;9.38;;;5.80;;
9821;SDS011;4950;46.042;14.472;2023-01-19T09:25:36;9.07;;;5.50;;
9821;SDS011;4950;46.042;14.472;2023-01-19T09:28:03;10.13;;;5.77;;
9821;SDS011;4950;46.042;14.472;2023-01-19T09:30:30;9.57;;;5.83;;
9821;SDS011;4950;46.042;14.472;2023-01-19T09:33:00;12.23;;;6.27;;
9821;SDS011;4950;46.042;14.472;2023-01-19T09:35:30;12.33;;;6.50;;
9821;SDS011;4950;46.042;14.472;2023-01-19T09:37:57;11.03;;;5.77;;
9821;SDS011;4950;46.042;14.472;2023-01-19T09:40:24;11.47;;;5.87;;
9821;SDS011;4950;46.042;14.472;2023-01-19T09:42:52;11.00;;;6.17;;
9821;SDS011;4950;46.042;14.472;2023-01-19T09:45:26;7.83;;;4.70;;
9821;SDS011;4950;46.042;14.472;2023-01-19T09:47:56;9.90;;;5.43;;
9821;SDS011;4950;46.042;14.472;2023-01-19T09:50:25;12.48;;;6.00;;
9821;SDS011;4950;46.042;14.472;2023-01-19T09:55:25;11.05;;;5.38;;
9821;SDS011;4950;46.042;14.472;2023-01-19T09:57:54;11.63;;;6.40;;
9821;SDS011;4950;46.042;14.472;2023-01-19T10:00:21;10.90;;;5.47;;
9821;SDS011;4950;46.042;14.472;2023-01-19T10:02:50;13.27;;;7.17;;
9821;SDS011;4950;46.042;14.472;2023-01-19T10:05:23;10.70;;;5.87;;
9821;SDS011;4950;46.042;14.472;2023-01-19T10:07:57;10.17;;;5.77;;
9821;SDS011;4950;46.042;14.472;2023-01-19T10:10:34;9.38;;;5.25;;
9821;SDS011;4950;46.042;14.472;2023-01-19T10:13:09;11.88;;;5.22;;
9821;SDS011;4950;46.042;14.472;2023-01-19T10:15:47;9.60;;;4.60;;
9821;SDS011;4950;46.042;14.472;2023-01-19T10:18:23;8.60;;;4.60;;
9821;SDS011;4950;46.042;14.472;2023-01-19T10:20:59;8.20;;;4.00;;
9821;SDS011;4950;46.042;14.472;2023-01-19T10:23:33;8.43;;;4.38;;
9821;SDS011;4950;46.042;14.472;2023-01-19T10:26:05;8.43;;;4.22;;
9821;SDS011;4950;46.042;14.472;2023-01-19T10:28:36;7.57;;;3.30;;
9821;SDS011;4950;46.042;14.472;2023-01-19T10:31:03;4.97;;;3.00;;
9821;SDS011;4950;46.042;14.472;2023-01-19T10:33:33;6.30;;;3.00;;
9821;SDS011;4950;46.042;14.472;2023-01-19T10:36:02;6.32;;;2.80;;
9821;SDS011;4950;46.042;14.472;2023-01-19T10:38:29;5.03;;;3.15;;
9821;SDS011;4950;46.042;14.472;2023-01-19T10:41:00;10.02;;;4.72;;
9821;SDS011;4950;46.042;14.472;2023-01-19T10:43:41;12.00;;;6.75;;
9821;SDS011;4950;46.042;14.472;2023-01-19T10:46:20;13.20;;;6.63;;
9821;SDS011;4950;46.042;14.472;2023-01-19T10:48:50;9.27;;;4.53;;
9821;SDS011;4950;46.042;14.472;2023-01-19T10:51:18;8.87;;;4.90;;
9821;SDS011;4950;46.042;14.472;2023-01-19T10:53:52;6.28;;;3.50;;
9821;SDS011;4950;46.042;14.472;2023-01-19T10:56:22;5.25;;;3.38;;
9821;SDS011;4950;46.042;14.472;2023-01-19T10:58:53;8.13;;;4.30;;
9821;SDS011;4950;46.042;14.472;2023-01-19T11:01:20;5.93;;;3.53;;
9821;SDS011;4950;46.042;14.472;2023-01-19T11:03:48;4.15;;;2.88;;
9821;SDS011;4950;46.042;14.472;2023-01-19T11:06:25;5.22;;;2.78;;
9821;SDS011;4950;46.042;14.472;2023-01-19T11:09:08;5.25;;;3.20;;
9821;SDS011;4950;46.042;14.472;2023-01-19T11:11:40;6.60;;;3.63;;
9821;SDS011;4950;46.042;14.472;2023-01-19T11:14:10;4.03;;;2.42;;
9821;SDS011;4950;46.042;14.472;2023-01-19T11:16:39;5.43;;;3.20;;
9821;SDS011;4950;46.042;14.472;2023-01-19T11:19:14;4.07;;;2.55;;
9821;SDS011;4950;46.042;14.472;2023-01-19T11:21:44;5.22;;;2.92;;
9821;SDS011;4950;46.042;14.472;2023-01-19T11:24:11;4.53;;;2.53;;
9821;SDS011;4950;46.042;14.472;2023-01-19T11:26:39;4.38;;;2.88;;
9821;SDS011;4950;46.042;14.472;2023-01-19T11:29:13;6.90;;;3.83;;
9821;SDS011;4950;46.042;14.472;2023-01-19T11:31:42;5.72;;;3.53;;
9821;SDS011;4950;46.042;14.472;2023-01-19T11:34:21;8.65;;;3.22;;
9821;SDS011;4950;46.042;14.472;2023-01-19T11:36:54;6.85;;;3.40;;
9821;SDS011;4950;46.042;14.472;2023-01-19T11:39:22;5.57;;;3.50;;
9821;SDS011;4950;46.042;14.472;2023-01-19T11:41:53;6.07;;;3.10;;
9821;SDS011;4950;46.042;14.472;2023-01-19T11:44:24;5.80;;;3.77;;
9821;SDS011;4950;46.042;14.472;2023-01-19T11:46:55;7.13;;;3.70;;
9821;SDS011;4950;46.042;14.472;2023-01-19T11:49:26;8.07;;;4.35;;
9821;SDS011;4950;46.042;14.472;2023-01-19T11:52:01;5.82;;;3.55;;
9821;SDS011;4950;46.042;14.472;2023-01-19T11:54:32;6.30;;;3.60;;
9821;SDS011;4950;46.042;14.472;2023-01-19T11:57:01;7.78;;;3.63;;
9821;SDS011;4950;46.042;14.472;2023-01-19T11:59:41;7.03;;;4.10;;
9821;SDS011;4950;46.042;14.472;2023-01-19T12:02:12;7.25;;;4.03;;
9821;SDS011;4950;46.042;14.472;2023-01-19T12:04:45;8.40;;;4.40;;
9821;SDS011;4950;46.042;14.472;2023-01-19T12:07:24;9.02;;;4.88;;
9821;SDS011;4950;46.042;14.472;2023-01-19T12:09:55;8.02;;;4.80;;
9821;SDS011;4950;46.042;14.472;2023-01-19T12:12:31;8.27;;;4.45;;
9821;SDS011;4950;46.042;14.472;2023-01-19T12:15:04;8.02;;;4.38;;
9821;SDS011;4950;46.042;14.472;2023-01-19T12:17:36;8.68;;;4.78;;
9821;SDS011;4950;46.042;14.472;2023-01-19T12:20:12;6.07;;;3.92;;
9821;SDS011;4950;46.042;14.472;2023-01-19T12:22:51;11.00;;;4.97;;
9821;SDS011;4950;46.042;14.472;2023-01-19T12:25:28;9.25;;;4.78;;
9821;SDS011;4950;46.042;14.472;2023-01-19T12:28:06;9.13;;;5.20;;
9821;SDS011;4950;46.042;14.472;2023-01-19T12:30:39;9.30;;;5.13;;
9821;SDS011;4950;46.042;14.472;2023-01-19T12:33:21;9.77;;;5.03;;
9821;SDS011;4950;46.042;14.472;2023-01-19T12:35:58;7.43;;;4.88;;
9821;SDS011;4950;46.042;14.472;2023-01-19T12:41:22;9.15;;;4.93;;
9821;SDS011;4950;46.042;14.472;2023-01-19T12:46:59;7.65;;;4.78;;
9821;SDS011;4950;46.042;14.472;2023-01-19T12:49:44;6.03;;;3.90;;
9821;SDS011;4950;46.042;14.472;2023-01-19T12:52:17;6.35;;;4.00;;
9821;SDS011;4950;46.042;14.472;2023-01-19T12:54:49;7.10;;;3.80;;
9821;SDS011;4950;46.042;14.472;2023-01-19T12:57:22;7.15;;;4.20;;
9821;SDS011;4950;46.042;14.472;2023-01-19T12:59:56;6.93;;;4.30;;
9821;SDS011;4950;46.042;14.472;2023-01-19T13:05:18;8.27;;;4.72;;
9821;SDS011;4950;46.042;14.472;2023-01-19T13:08:13;8.68;;;5.05;;
9821;SDS011;4950;46.042;14.472;2023-01-19T13:10:51;7.78;;;4.65;;
9821;SDS011;4950;46.042;14.472;2023-01-19T13:13:33;11.70;;;5.88;;
9821;SDS011;4950;46.042;14.472;2023-01-19T13:19:17;10.23;;;5.60;;
9821;SDS011;4950;46.042;14.472;2023-01-19T13:21:55;8.93;;;5.05;;
9821;SDS011;4950;46.042;14.472;2023-01-19T13:24:23;10.75;;;5.18;;
9821;SDS011;4950;46.042;14.472;2023-01-19T13:26:53;8.88;;;5.03;;
9821;SDS011;4950;46.042;14.472;2023-01-19T13:29:27;8.13;;;4.70;;
9821;SDS011;4950;46.042;14.472;2023-01-19T13:31:56;10.60;;;6.35;;
9821;SDS011;4950;46.042;14.472;2023-01-19T13:34:28;8.73;;;5.20;;
9821;SDS011;4950;46.042;14.472;2023-01-19T13:36:56;8.68;;;5.88;;
9821;SDS011;4950;46.042;14.472;2023-01-19T13:39:27;9.55;;;6.20;;
9821;SDS011;4950;46.042;14.472;2023-01-19T13:41:56;12.52;;;7.22;;
9821;SDS011;4950;46.042;14.472;2023-01-19T13:44:27;11.50;;;6.53;;
9821;SDS011;4950;46.042;14.472;2023-01-19T13:46:55;9.90;;;5.68;;
9821;SDS011;4950;46.042;14.472;2023-01-19T13:49:25;9.32;;;5.30;;
9821;SDS011;4950;46.042;14.472;2023-01-19T13:52:04;9.00;;;5.57;;
9821;SDS011;4950;46.042;14.472;2023-01-19T13:54:49;12.60;;;5.82;;
9821;SDS011;4950;46.042;14.472;2023-01-19T13:57:21;8.38;;;5.57;;
9821;SDS011;4950;46.042;14.472;2023-01-19T13:59:59;7.38;;;4.70;;
9821;SDS011;4950;46.042;14.472;2023-01-19T14:02:28;9.15;;;5.75;;
9821;SDS011;4950;46.042;14.472;2023-01-19T14:04:54;10.05;;;6.35;;
9821;SDS011;4950;46.042;14.472;2023-01-19T14:07:21;10.85;;;6.60;;
9821;SDS011;4950;46.042;14.472;2023-01-19T14:10:01;10.30;;;6.53;;
9821;SDS011;4950;46.042;14.472;2023-01-19T14:12:27;10.35;;;5.68;;
9821;SDS011;4950;46.042;14.472;2023-01-19T14:14:56;9.18;;;5.85;;
9821;SDS011;4950;46.042;14.472;2023-01-19T14:17:23;9.50;;;5.60;;
9821;SDS011;4950;46.042;14.472;2023-01-19T14:19:52;12.50;;;6.82;;
9821;SDS011;4950;46.042;14.472;2023-01-19T14:22:20;11.45;;;6.53;;
9821;SDS011;4950;46.042;14.472;2023-01-19T14:27:51;13.38;;;7.13;;
9821;SDS011;4950;46.042;14.472;2023-01-19T14:30:53;11.95;;;7.00;;
9821;SDS011;4950;46.042;14.472;2023-01-19T14:33:33;12.05;;;6.97;;
9821;SDS011;4950;46.042;14.472;2023-01-19T14:36:10;13.80;;;7.75;;
9821;SDS011;4950;46.042;14.472;2023-01-19T14:38:50;13.52;;;7.97;;
9821;SDS011;4950;46.042;14.472;2023-01-19T14:41:22;13.90;;;7.78;;
9821;SDS011;4950;46.042;14.472;2023-01-19T14:43:52;14.90;;;7.55;;
9821;SDS011;4950;46.042;14.472;2023-01-19T14:46:20;13.53;;;7.07;;
9821;SDS011;4950;46.042;14.472;2023-01-19T14:48:49;11.55;;;6.70;;
9821;SDS011;4950;46.042;14.472;2023-01-19T14:53:47;10.05;;;5.50;;
9821;SDS011;4950;46.042;14.472;2023-01-19T14:56:25;11.40;;;5.03;;
9821;SDS011;4950;46.042;14.472;2023-01-19T14:58:53;9.57;;;5.65;;
9821;SDS011;4950;46.042;14.472;2023-01-19T15:01:21;8.05;;;5.22;;
9821;SDS011;4950;46.042;14.472;2023-01-19T15:03:48;8.45;;;5.28;;
9821;SDS011;4950;46.042;14.472;2023-01-19T15:06:15;8.82;;;5.00;;
9821;SDS011;4950;46.042;14.472;2023-01-19T15:08:44;9.45;;;5.10;;
9821;SDS011;4950;46.042;14.472;2023-01-19T15:11:15;11.63;;;6.17;;
9821;SDS011;4950;46.042;14.472;2023-01-19T15:13:48;9.15;;;5.03;;
9821;SDS011;4950;46.042;14.472;2023-01-19T15:16:15;8.88;;;5.15;;
9821;SDS011;4950;46.042;14.472;2023-01-19T15:18:42;9.15;;;4.95;;
9821;SDS011;4950;46.042;14.472;2023-01-19T15:21:08;14.13;;;4.70;;
9821;SDS011;4950;46.042;14.472;2023-01-19T15:23:39;10.02;;;5.00;;
9821;SDS011;4950;46.042;14.472;2023-01-19T15:26:06;8.95;;;4.90;;